Time;durP1;ratioP1;P1;durP2;ratioP2;P2;SDS_P1;SDS_P2;PMS_P1;PMS_P2;Temp;Humidity;BMP_temperature;BMP_pressure;BME280_temperature;BME280_humidity;BME280_pressure;Samples;Min_cycle;Max_cycle;Signal;HPM_P1;HPM_P2
2021/06/01 00:01:30;;;;;;;5.40;5.00;;;;;;;13.05;68.06;101856.47;5082586;28;20066;-80
2021/06/01 00:03:55;;;;;;;4.90;4.50;;;;;;;13.13;68.52;101856.41;5099746;28;20049;-78
2021/06/01 00:06:21;;;;;;;5.65;5.18;;;;;;;12.90;70.21;101852.22;5082755;28;20385;-79
2021/06/01 00:08:46;;;;;;;5.45;5.07;;;;;;;12.37;71.82;101853.44;5082050;28;20032;-79
2021/06/01 00:11:13;;;;;;;5.32;4.88;;;;;;;12.39;72.11;101856.91;5082472;28;20028;-78
2021/06/01 00:13:39;;;;;;;7.80;5.47;;;;;;;12.16;72.37;101852.63;5099233;28;20453;-79
2021/06/01 00:16:05;;;;;;;5.35;4.88;;;;;;;12.07;72.89;101857.94;5099367;28;20031;-78
2021/06/01 00:18:31;;;;;;;5.93;5.43;;;;;;;12.15;73.33;101853.53;5065290;28;20027;-78
2021/06/01 00:20:56;;;;;;;6.35;5.65;;;;;;;12.23;72.60;101850.88;5082396;28;20073;-78
2021/06/01 00:23:21;;;;;;;5.18;4.72;;;;;;;12.29;73.72;101862.19;5098996;28;20027;-78
2021/06/01 00:25:47;;;;;;;5.40;4.90;;;;;;;12.25;73.41;101865.69;5081567;28;20030;-78
2021/06/01 00:28:12;;;;;;;6.90;5.60;;;;;;;12.03;73.97;101861.44;5098997;28;20058;-78
2021/06/01 00:30:40;;;;;;;7.40;4.93;;;;;;;11.84;73.92;101858.84;5081756;28;20051;-77
2021/06/01 00:33:05;;;;;;;5.60;5.13;;;;;;;11.70;73.94;101860.59;5099452;28;20092;-78
2021/06/01 00:35:33;;;;;;;4.55;4.15;;;;;;;11.82;73.83;101860.56;5081765;28;20028;-78
2021/06/01 00:37:59;;;;;;;5.03;4.45;;;;;;;11.89;73.04;101858.81;5082335;28;20027;-78
2021/06/01 00:40:24;;;;;;;4.82;4.32;;;;;;;11.93;74.33;101861.44;5098254;28;20019;-78
2021/06/01 00:42:49;;;;;;;5.18;4.68;;;;;;;11.95;73.17;101861.47;5081844;28;20316;-78
2021/06/01 00:45:18;;;;;;;4.13;3.80;;;;;;;11.88;73.44;101859.72;5098579;28;20020;-78
2021/06/01 00:47:44;;;;;;;6.80;4.75;;;;;;;11.82;73.43;101853.63;5099707;28;20035;-78
2021/06/01 00:50:11;;;;;;;5.97;5.22;;;;;;;11.79;74.48;101857.97;5116104;28;20515;-78
2021/06/01 00:52:36;;;;;;;5.40;4.90;;;;;;;11.78;74.17;101856.22;5098644;28;20028;-77
2021/06/01 00:55:04;;;;;;;4.90;4.50;;;;;;;11.61;73.65;101846.66;5081619;28;20031;-79
2021/06/01 00:57:29;;;;;;;5.43;4.93;;;;;;;11.55;75.76;101851.03;5081624;28;20026;-78
2021/06/01 00:59:54;;;;;;;4.97;4.57;;;;;;;11.45;75.56;101861.56;5081374;28;20110;-79
2021/06/01 01:02:20;;;;;;;4.85;4.47;;;;;;;11.51;75.87;101850.19;5098564;28;20334;-79
2021/06/01 01:04:46;;;;;;;5.78;5.15;;;;;;;11.47;76.44;101856.31;5098706;28;20027;-78
2021/06/01 01:07:18;;;;;;;5.22;4.72;;;;;;;11.44;74.97;101853.72;5081584;28;20255;-80
2021/06/01 01:09:44;;;;;;;5.07;4.65;;;;;;;11.42;75.07;101850.22;5098566;28;20035;-79
2021/06/01 01:12:31;;;;;;;5.22;4.80;;;;;;;11.28;76.01;101853.69;5081107;28;20064;-78
2021/06/01 01:15:00;;;;;;;6.43;5.28;;;;;;;11.33;75.87;101848.47;5081468;28;20023;-79
2021/06/01 01:17:36;;;;;;;6.30;5.53;;;;;;;11.36;75.72;101852.81;5098526;28;20031;-79
2021/06/01 01:20:07;;;;;;;5.82;4.80;;;;;;;11.19;76.28;101853.69;5081072;28;20026;-78
2021/06/01 01:22:39;;;;;;;4.95;4.43;;;;;;;11.18;76.21;101851.97;5098003;28;20061;-79
2021/06/01 01:25:19;;;;;;;5.53;4.95;;;;;;;11.17;76.27;101855.47;5081291;28;20019;-79
2021/06/01 01:28:01;;;;;;;7.47;5.40;;;;;;;11.30;76.62;101861.53;5081277;28;20068;-79
2021/06/01 01:30:31;;;;;;;4.93;4.57;;;;;;;11.19;77.20;101848.47;5098222;28;20019;-79
2021/06/01 01:32:59;;;;;;;4.95;4.55;;;;;;;11.40;77.27;101852.81;5081265;28;20019;-79
2021/06/01 01:35:26;;;;;;;5.57;5.15;;;;;;;11.31;76.63;101847.59;5097840;28;20027;-79
2021/06/01 01:37:52;;;;;;;5.50;5.10;;;;;;;11.32;77.14;101855.44;5080006;28;20023;-78
2021/06/01 01:40:21;;;;;;;4.55;4.15;;;;;;;11.25;76.46;101858.94;5080689;28;20039;-78
2021/06/01 01:42:51;;;;;;;5.65;5.15;;;;;;;11.16;76.62;101866.78;5080887;28;20031;-79
2021/06/01 01:45:25;;;;;;;5.25;4.70;;;;;;;11.16;76.61;101867.66;5098099;28;20023;-79
2021/06/01 01:50:19;;;;;;;5.20;4.70;;;;;;;11.14;77.52;101855.47;5097592;28;20031;-78
2021/06/01 01:52:45;;;;;;;7.45;5.53;;;;;;;11.03;77.00;101851.97;5097545;28;20356;-78
2021/06/01 01:55:11;;;;;;;5.80;5.20;;;;;;;11.08;77.40;101851.09;5097557;28;20110;-78
2021/06/01 01:57:40;;;;;;;4.47;4.18;;;;;;;11.17;76.58;101850.22;5097639;28;20031;-78
2021/06/01 02:00:10;;;;;;;4.90;4.30;;;;;;;11.22;76.50;101851.09;5097141;28;20023;-78
2021/06/01 02:02:36;;;;;;;4.95;4.55;;;;;;;11.05;77.51;101851.09;5115114;28;20104;-78
2021/06/01 02:05:04;;;;;;;5.28;4.97;;;;;;;10.90;78.54;101851.94;5080219;28;20590;-79
2021/06/01 02:07:31;;;;;;;5.53;5.03;;;;;;;10.88;78.25;101851.09;5080734;28;20027;-78
2021/06/01 02:10:02;;;;;;;4.78;4.50;;;;;;;10.91;77.57;101847.63;5098809;28;20024;-78
2021/06/01 02:12:28;;;;;;;6.93;5.53;;;;;;;10.86;77.65;101844.13;5083025;28;20111;-78
2021/06/01 02:14:54;;;;;;;5.53;5.00;;;;;;;10.84;78.83;101846.72;5097362;28;20103;-79
2021/06/01 02:17:19;;;;;;;7.63;5.15;;;;;;;10.81;77.18;101842.38;5096878;28;20159;-78
2021/06/01 02:19:47;;;;;;;5.82;5.28;;;;;;;10.64;78.69;101844.94;5096673;28;20443;-79
2021/06/01 02:23:46;;;;;;;5.78;5.00;;;;;;;10.61;78.81;101847.56;5080147;28;20073;-79
2021/06/01 02:25:27;;;;;;;5.80;5.00;;;;;;;10.55;79.35;101839.72;5100592;28;20439;-78
2021/06/01 02:28:07;;;;;;;5.75;5.18;;;;;;;10.55;79.45;101834.50;5080070;28;20062;-78
2021/06/01 02:30:58;;;;;;;5.15;4.65;;;;;;;10.55;79.16;101847.56;5079488;28;20023;-79
2021/06/01 02:33:24;;;;;;;5.15;4.75;;;;;;;10.74;79.96;101845.81;5095813;28;20042;-79
2021/06/01 02:35:51;;;;;;;5.53;5.03;;;;;;;10.68;78.65;101844.97;5079865;28;20020;-79
2021/06/01 02:38:17;;;;;;;6.97;5.13;;;;;;;10.58;78.61;101839.72;5096563;28;20114;-79
2021/06/01 02:40:43;;;;;;;6.93;5.15;;;;;;;10.53;79.37;101844.06;5079539;28;20023;-79
2021/06/01 02:43:11;;;;;;;7.13;4.97;;;;;;;10.54;78.85;101851.03;5096469;28;20401;-78
2021/06/01 02:45:39;;;;;;;5.53;5.03;;;;;;;10.43;79.34;101842.28;5079662;28;20024;-79
2021/06/01 02:48:05;;;;;;;6.20;5.13;;;;;;;10.57;79.31;101851.03;5079294;28;20072;-79
2021/06/01 02:50:31;;;;;;;5.57;4.97;;;;;;;10.51;79.25;101840.56;5096221;28;20026;-79
2021/06/01 02:52:57;;;;;;;5.65;5.15;;;;;;;10.44;79.48;101846.66;5096499;28;20028;-79
2021/06/01 02:55:23;;;;;;;7.28;5.18;;;;;;;10.61;79.81;101839.72;5096369;28;20031;-79
2021/06/01 02:57:49;;;;;;;5.63;5.13;;;;;;;10.46;79.84;101840.56;5096302;28;20286;-79
2021/06/01 03:00:20;;;;;;;6.50;5.13;;;;;;;10.48;80.10;101843.16;5079068;28;20051;-78
2021/06/01 03:02:47;;;;;;;5.20;4.80;;;;;;;10.57;79.46;101837.97;5095625;28;20050;-79
2021/06/01 03:05:13;;;;;;;5.20;4.75;;;;;;;10.57;79.77;101842.34;5094014;28;20023;-80
2021/06/01 03:07:39;;;;;;;6.57;5.47;;;;;;;10.49;79.76;101830.09;5077123;28;20097;-79
2021/06/01 03:10:10;;;;;;;5.38;4.95;;;;;;;10.62;79.24;101836.25;5092307;28;20454;-79
2021/06/01 03:15:12;;;;;;;6.07;5.63;;;;;;;10.76;79.57;101830.19;5095399;28;20062;-79
2021/06/01 03:17:38;;;;;;;4.88;4.47;;;;;;;10.59;79.49;101831.03;5093687;28;20047;-80
2021/06/01 03:20:04;;;;;;;5.50;4.57;;;;;;;10.63;79.40;101832.78;5076264;28;20028;-79
2021/06/01 03:22:30;;;;;;;7.07;4.93;;;;;;;10.58;79.26;101834.50;5076223;28;20047;-79
2021/06/01 03:24:56;;;;;;;5.38;4.88;;;;;;;10.56;79.40;101837.97;5093618;28;20035;-79
2021/06/01 03:27:21;;;;;;;7.57;5.53;;;;;;;10.69;79.42;101834.53;5076324;28;20446;-79
2021/06/01 03:29:46;;;;;;;5.95;5.45;;;;;;;10.73;79.98;101838.00;5076461;28;20023;-79
2021/06/01 03:32:12;;;;;;;5.40;5.07;;;;;;;10.73;79.41;101827.53;5076448;28;20028;-79
2021/06/01 03:34:37;;;;;;;5.45;5.05;;;;;;;10.47;79.57;101828.34;5093412;28;20030;-78
2021/06/01 03:37:02;;;;;;;5.57;5.18;;;;;;;10.52;79.93;101824.03;5076517;28;20023;-79
2021/06/01 03:39:30;;;;;;;5.18;4.63;;;;;;;10.69;79.51;101831.00;5076019;28;20347;-79
2021/06/01 03:41:55;;;;;;;6.60;5.32;;;;;;;10.68;79.40;101816.22;5076604;28;20411;-79
2021/06/01 03:44:21;;;;;;;6.97;5.38;;;;;;;10.64;80.04;101813.59;5093357;28;20039;-79
2021/06/01 03:46:46;;;;;;;5.97;5.45;;;;;;;10.86;78.48;101818.84;5093363;28;20019;-79
2021/06/01 03:49:11;;;;;;;5.68;5.15;;;;;;;10.64;79.12;101813.59;5092614;28;20110;-79
2021/06/01 03:51:37;;;;;;;6.30;5.40;;;;;;;10.67;79.76;101817.94;5075751;28;20032;-79
2021/06/01 03:54:03;;;;;;;5.57;5.25;;;;;;;10.63;80.30;101817.09;5092965;28;20023;-79
2021/06/01 03:56:28;;;;;;;6.70;6.10;;;;;;;10.76;79.11;101806.66;5076081;28;20031;-79
2021/06/01 03:58:54;;;;;;;5.22;4.82;;;;;;;10.83;79.28;101811.00;5092818;28;20038;-79
2021/06/01 04:01:19;;;;;;;5.72;5.30;;;;;;;10.73;79.39;101812.75;5079140;28;20030;-78
2021/06/01 04:03:45;;;;;;;5.75;5.35;;;;;;;10.83;79.17;101808.38;5082383;28;20024;-78
2021/06/01 04:06:11;;;;;;;6.57;6.07;;;;;;;10.88;79.21;101811.00;5099642;28;20024;-78
2021/06/01 04:08:37;;;;;;;6.30;5.55;;;;;;;10.97;79.15;101811.00;5081765;28;20023;-78
2021/06/01 04:11:02;;;;;;;6.03;5.32;;;;;;;10.94;79.32;101811.88;5061423;22;20048;-78
2021/06/01 04:13:28;;;;;;;5.93;5.32;;;;;;;10.92;79.15;101808.41;5056049;28;20028;-78
2021/06/01 04:15:53;;;;;;;6.45;5.80;;;;;;;11.04;78.99;101806.66;5039379;28;20025;-78
2021/06/01 04:18:18;;;;;;;6.00;5.13;;;;;;;11.01;79.51;101819.72;5056893;28;20025;-78
2021/06/01 04:20:44;;;;;;;6.15;5.65;;;;;;;11.07;79.32;101814.47;5055962;28;20021;-78
2021/06/01 04:23:09;;;;;;;5.80;4.80;;;;;;;11.07;79.65;101804.91;5039350;28;20033;-78
2021/06/01 04:25:34;;;;;;;5.82;5.30;;;;;;;11.06;79.52;101807.53;5057024;28;20024;-78
2021/06/01 04:27:59;;;;;;;5.93;5.38;;;;;;;11.21;80.14;101804.00;5039216;28;20163;-78
2021/06/01 04:30:25;;;;;;;5.50;5.10;;;;;;;11.47;78.29;101803.97;5039013;28;20021;-79
2021/06/01 04:32:50;;;;;;;5.85;5.30;;;;;;;11.55;78.42;101803.94;5038867;28;20031;-78
2021/06/01 04:35:16;;;;;;;6.32;5.68;;;;;;;11.69;78.07;101801.31;5039102;28;20061;-78
2021/06/01 04:37:41;;;;;;;6.15;5.65;;;;;;;11.66;79.40;101797.81;5056794;28;20078;-79
2021/06/01 04:40:09;;;;;;;6.53;5.53;;;;;;;11.66;78.61;101805.66;5056306;28;20036;-78
2021/06/01 04:42:35;;;;;;;5.57;5.07;;;;;;;11.78;79.56;101806.50;5039562;28;20056;-78
2021/06/01 04:45:00;;;;;;;5.40;4.90;;;;;;;11.91;79.35;101802.94;5038858;28;20366;-78
2021/06/01 04:47:25;;;;;;;5.40;5.00;;;;;;;12.05;78.53;101800.31;5038974;28;20031;-79
2021/06/01 04:49:51;;;;;;;11.93;4.95;;;;;;;12.04;77.51;101802.94;5038501;28;20057;-78
2021/06/01 04:52:16;;;;;;;5.93;5.47;;;;;;;12.21;76.36;101806.34;5038311;28;20116;-78
2021/06/01 04:54:41;;;;;;;5.55;5.05;;;;;;;12.28;76.90;101802.81;5056386;28;20020;-79
2021/06/01 04:57:07;;;;;;;5.85;5.25;;;;;;;12.59;75.83;101801.75;5056350;28;20024;-79
2021/06/01 04:59:33;;;;;;;6.05;5.45;;;;;;;12.73;75.24;101802.50;5038380;28;20039;-79
2021/06/01 05:01:58;;;;;;;6.07;4.57;;;;;;;13.01;74.41;101799.69;5038548;28;20088;-79
2021/06/01 05:04:23;;;;;;;12.38;4.82;;;;;;;13.32;73.38;101799.38;5038637;28;20415;-79
2021/06/01 05:06:48;;;;;;;5.30;4.80;;;;;;;13.64;72.33;101806.09;5038349;28;20032;-79
2021/06/01 05:09:14;;;;;;;5.70;4.90;;;;;;;13.83;71.50;101801.50;5038144;28;20102;-78
2021/06/01 05:11:39;;;;;;;5.93;5.32;;;;;;;13.92;71.65;101798.75;5038337;28;20317;-79
2021/06/01 05:14:10;;;;;;;6.30;5.32;;;;;;;14.01;71.48;101806.50;5038364;28;20021;-79
2021/06/01 05:16:35;;;;;;;5.03;4.63;;;;;;;14.10;71.99;101804.66;5056081;28;20029;-79
2021/06/01 05:19:00;;;;;;;7.28;4.68;;;;;;;14.26;71.01;101806.19;5054722;28;20020;-78
2021/06/01 05:21:26;;;;;;;5.78;4.70;;;;;;;14.43;70.77;101802.44;5038087;28;20013;-77
2021/06/01 05:23:51;;;;;;;5.63;4.75;;;;;;;14.75;69.44;101799.38;5038232;28;20392;-76
2021/06/01 05:26:16;;;;;;;5.03;4.63;;;;;;;15.19;67.99;101799.50;5054856;28;20321;-77
2021/06/01 05:28:42;;;;;;;4.55;4.18;;;;;;;15.65;66.48;101796.00;5037624;28;20121;-77
2021/06/01 05:33:37;;;;;;;7.35;4.43;;;;;;;16.36;64.62;101791.88;5038509;28;20033;-77
2021/06/01 05:36:03;;;;;;;4.82;4.25;;;;;;;16.85;62.34;101800.38;5055390;28;20048;-77
2021/06/01 05:38:30;;;;;;;7.65;5.43;;;;;;;17.19;58.20;101801.31;5037485;28;20317;-77
2021/06/01 05:40:56;;;;;;;5.07;4.57;;;;;;;17.19;59.34;101796.03;5037558;28;20122;-77
2021/06/01 05:43:21;;;;;;;4.88;4.47;;;;;;;17.43;57.70;101791.88;5037468;28;20112;-77
2021/06/01 05:45:47;;;;;;;5.97;4.80;;;;;;;17.83;56.15;101793.41;5037539;28;20108;-77
2021/06/01 05:48:13;;;;;;;8.90;4.40;;;;;;;17.88;56.44;101785.31;5037158;28;20100;-76
2021/06/01 05:50:39;;;;;;;14.10;5.13;;;;;;;18.05;56.32;101792.75;5020196;28;20104;-76
2021/06/01 05:53:06;;;;;;;5.80;5.30;;;;;;;18.35;54.46;101796.28;5037295;28;20021;-76
2021/06/01 05:55:31;;;;;;;6.47;5.35;;;;;;;18.61;54.07;101784.00;5037265;28;20021;-76
2021/06/01 05:57:57;;;;;;;5.60;5.03;;;;;;;18.82;52.75;101787.69;5037070;28;20487;-76
2021/06/01 06:00:23;;;;;;;6.55;5.00;;;;;;;18.78;52.68;101790.50;5037028;28;20053;-76
2021/06/01 06:02:48;;;;;;;5.32;4.93;;;;;;;18.19;54.27;101795.88;5020433;28;20428;-77
2021/06/01 06:05:14;;;;;;;6.07;5.15;;;;;;;19.19;51.02;101790.91;5037063;28;20031;-76
2021/06/01 06:07:40;;;;;;;5.82;5.25;;;;;;;18.35;53.45;101792.75;5019666;28;20082;-77
2021/06/01 06:10:06;;;;;;;6.80;5.32;;;;;;;17.29;55.89;101804.56;5035571;28;20128;-76
2021/06/01 06:12:31;;;;;;;7.40;5.45;;;;;;;17.26;56.32;101800.25;5037002;28;20061;-76
2021/06/01 06:14:57;;;;;;;7.07;4.95;;;;;;;18.35;53.10;101793.63;5035927;28;20063;-77
2021/06/01 06:17:39;;;;;;;7.88;5.43;;;;;;;18.02;55.24;101792.88;5036577;28;20398;-76
2021/06/01 06:20:06;;;;;;;6.95;5.10;;;;;;;18.52;53.83;101789.56;5053732;28;20104;-78
2021/06/01 06:22:32;;;;;;;5.78;4.72;;;;;;;18.39;54.08;101792.63;5036443;28;20025;-76
2021/06/01 06:24:57;;;;;;;6.22;5.60;;;;;;;18.18;55.00;101795.91;5052995;28;20025;-78
2021/06/01 06:27:23;;;;;;;9.55;6.18;;;;;;;18.89;53.92;101791.03;5051992;28;20032;-79
2021/06/01 06:29:48;;;;;;;19.27;6.68;;;;;;;18.40;55.67;101801.41;5042954;28;20048;-77
2021/06/01 06:32:13;;;;;;;18.90;6.25;;;;;;;19.42;52.30;101795.38;5048583;28;20040;-77
2021/06/01 06:34:39;;;;;;;13.13;5.20;;;;;;;20.47;49.53;101790.56;5032981;28;20021;-78
2021/06/01 06:37:05;;;;;;;5.57;5.00;;;;;;;23.06;40.09;101789.41;5038371;28;20071;-77
2021/06/01 06:39:32;;;;;;;3.65;3.35;;;;;;;23.70;37.79;101786.13;5033759;28;20433;-78
2021/06/01 06:41:57;;;;;;;6.05;4.07;;;;;;;23.07;39.19;101783.16;5018389;28;20037;-81
2021/06/01 06:44:23;;;;;;;5.57;3.88;;;;;;;22.70;39.11;101784.16;5044183;28;20017;-78
2021/06/01 06:49:35;;;;;;;7.15;4.40;;;;;;;21.77;42.69;101784.13;5038849;28;20036;-77
2021/06/01 06:52:04;;;;;;;7.75;3.85;;;;;;;21.04;45.58;101789.09;5053550;28;20420;-77
2021/06/01 06:54:30;;;;;;;5.78;4.85;;;;;;;21.29;44.19;101788.00;5037838;28;20021;-76
2021/06/01 06:56:55;;;;;;;9.55;5.00;;;;;;;19.57;48.72;101788.66;5022362;28;20028;-77
2021/06/01 06:59:21;;;;;;;5.63;4.32;;;;;;;19.58;47.98;101787.75;5038644;28;20028;-77
2021/06/01 07:01:46;;;;;;;5.15;3.83;;;;;;;21.57;41.98;101792.16;5026057;28;20100;-76
2021/06/01 07:04:11;;;;;;;10.00;3.88;;;;;;;21.40;42.39;101791.03;5003767;28;20036;-77
2021/06/01 07:06:37;;;;;;;7.53;4.63;;;;;;;20.22;44.77;101789.75;5041694;28;20021;-76
2021/06/01 07:09:03;;;;;;;3.75;2.97;;;;;;;20.33;44.15;101785.78;5041467;28;20103;-77
2021/06/01 07:11:28;;;;;;;6.93;3.55;;;;;;;20.98;42.82;101786.69;5015802;28;20092;-77
2021/06/01 07:14:05;;;;;;;4.03;3.55;;;;;;;20.00;40.74;101788.84;5018094;28;20496;-78
2021/06/01 07:16:30;;;;;;;8.07;3.95;;;;;;;20.00;42.66;101783.56;5019680;28;20021;-79
2021/06/01 07:18:56;;;;;;;5.25;3.17;;;;;;;19.28;41.55;101784.41;5022481;28;20114;-77
2021/06/01 07:21:21;;;;;;;6.95;3.28;;;;;;;19.19;45.05;101780.31;5031699;28;20442;-78
2021/06/01 07:23:46;;;;;;;3.78;3.38;;;;;;;20.22;44.04;101789.75;5038200;28;20025;-77
2021/06/01 07:26:14;;;;;;;23.05;4.72;;;;;;;20.11;46.05;101786.66;5017594;28;20021;-79
2021/06/01 07:28:39;;;;;;;7.22;4.25;;;;;;;19.88;43.64;101784.91;5001452;28;20105;-77
2021/06/01 07:31:06;;;;;;;6.15;3.50;;;;;;;20.55;39.92;101785.81;5027750;28;20032;-78
2021/06/01 07:33:32;;;;;;;5.70;3.65;;;;;;;21.60;35.70;101784.03;5019154;28;20084;-77
2021/06/01 07:35:57;;;;;;;3.22;3.00;;;;;;;22.92;32.77;101783.94;5006973;28;20021;-76
2021/06/01 07:38:23;;;;;;;6.72;2.95;;;;;;;20.19;36.23;101786.34;5039303;28;20046;-77
2021/06/01 07:40:48;;;;;;;4.07;2.65;;;;;;;21.84;34.41;101783.81;5028748;28;20111;-77
2021/06/01 07:43:14;;;;;;;3.20;2.75;;;;;;;23.73;31.34;101781.47;5035382;28;20448;-76
2021/06/01 07:45:39;;;;;;;2.80;2.60;;;;;;;22.40;32.98;101780.28;5024401;28;20025;-78
2021/06/01 07:48:05;;;;;;;3.22;2.95;;;;;;;25.46;28.13;101770.66;5035384;28;20051;-77
2021/06/01 07:50:30;;;;;;;5.65;3.70;;;;;;;24.52;31.42;101776.25;5027424;28;20115;-77
2021/06/01 07:52:56;;;;;;;4.82;3.20;;;;;;;21.04;36.29;101775.81;5038925;28;20554;-77
2021/06/01 07:55:22;;;;;;;5.55;3.17;;;;;;;22.97;33.47;101779.22;5021448;28;20108;-76
2021/06/01 07:57:47;;;;;;;4.38;3.28;;;;;;;21.79;33.94;101768.09;5055663;28;20025;-76
2021/06/01 08:00:13;;;;;;;4.50;2.53;;;;;;;22.12;34.63;101770.94;5055731;28;20032;-76
2021/06/01 08:02:39;;;;;;;3.60;3.30;;;;;;;21.73;35.53;101765.69;5057137;28;20396;-77
2021/06/01 08:05:05;;;;;;;2.90;2.60;;;;;;;20.91;35.59;101766.63;5056067;28;20021;-77
2021/06/01 08:07:30;;;;;;;6.45;3.60;;;;;;;22.01;35.63;101765.28;5057371;28;20035;-76
2021/06/01 08:09:56;;;;;;;4.65;3.00;;;;;;;21.47;38.38;101767.72;5055427;28;20127;-76
2021/06/01 08:12:21;;;;;;;3.67;2.92;;;;;;;21.51;37.41;101763.13;5055792;28;20031;-77
2021/06/01 08:14:48;;;;;;;4.78;3.00;;;;;;;22.98;33.66;101756.97;5055765;28;20053;-77
2021/06/01 08:17:14;;;;;;;6.72;3.03;;;;;;;22.16;36.84;101762.84;5055966;28;20025;-77
2021/06/01 08:19:41;;;;;;;3.92;2.97;;;;;;;21.52;38.53;101763.06;5056255;28;20336;-76
2021/06/01 08:24:36;;;;;;;5.00;2.50;;;;;;;20.46;41.15;101757.84;5039627;28;20432;-77
2021/06/01 08:27:04;;;;;;;3.38;2.00;;;;;;;21.18;37.84;101763.72;5056582;28;20072;-76
2021/06/01 08:29:29;;;;;;;2.67;1.90;;;;;;;21.00;38.36;101752.97;5038336;28;20040;-77
2021/06/01 08:31:54;;;;;;;15.15;2.83;;;;;;;21.26;40.19;101762.44;5038784;28;20021;-76
2021/06/01 08:34:20;;;;;;;5.43;2.92;;;;;;;20.70;41.05;101756.00;5038878;28;20021;-76
2021/06/01 08:36:45;;;;;;;3.70;2.83;;;;;;;20.29;42.34;101752.34;5022320;28;20021;-77
2021/06/01 08:39:11;;;;;;;11.73;2.88;;;;;;;19.80;40.58;101745.44;5037706;28;20091;-76
2021/06/01 08:41:38;;;;;;;4.03;2.30;;;;;;;19.58;35.81;101742.69;5055060;28;20071;-76
2021/06/01 08:44:04;;;;;;;2.78;2.55;;;;;;;19.76;35.76;101743.78;5055727;28;20024;-77
2021/06/01 08:46:31;;;;;;;3.22;2.40;;;;;;;20.20;36.86;101743.84;5038160;28;20035;-76
2021/06/01 08:48:57;;;;;;;4.50;2.17;;;;;;;20.21;39.71;101750.03;5038521;28;20048;-76
2021/06/01 08:51:24;;;;;;;4.72;2.30;;;;;;;20.25;40.15;101747.19;5054891;28;20618;-76
2021/06/01 08:53:51;;;;;;;3.25;1.85;;;;;;;20.39;38.75;101746.63;5055572;28;20124;-76
2021/06/01 08:56:19;;;;;;;4.10;2.30;;;;;;;20.09;39.05;101741.63;5053914;28;20021;-76
2021/06/01 08:58:48;;;;;;;3.10;2.30;;;;;;;20.69;37.47;101740.16;5036590;28;20025;-76
2021/06/01 09:01:16;;;;;;;12.02;2.90;;;;;;;20.89;38.28;101736.66;5038236;28;20060;-77
2021/06/01 09:03:43;;;;;;;3.80;2.53;;;;;;;20.33;35.77;101744.22;5055996;28;20341;-76
2021/06/01 09:06:32;;;;;;;4.05;2.30;;;;;;;20.04;34.88;101737.44;5054915;28;20028;-76
2021/06/01 09:22:04;;;;;;;2.50;2.03;;;;;;;21.65;33.33;101715.56;5054557;28;20052;-77
2021/06/01 09:24:30;;;;;;;3.33;2.30;;;;;;;22.47;33.49;101713.44;5038045;28;20404;-78
2021/06/01 09:27:02;;;;;;;1.85;1.70;;;;;;;22.07;34.31;101706.47;5038071;28;20048;-77
2021/06/01 09:29:29;;;;;;;3.25;1.90;;;;;;;21.90;33.59;101709.09;5055136;28;20425;-78
2021/06/01 09:32:24;;;;;;;3.60;2.08;;;;;;;21.53;33.98;101716.09;5054852;28;20025;-77
2021/06/01 09:34:51;;;;;;;3.33;2.07;;;;;;;21.54;35.69;101708.09;5037227;28;20108;-76
2021/06/01 09:37:33;;;;;;;4.45;2.30;;;;;;;21.52;34.40;101707.25;5054860;28;20024;-77
2021/06/01 09:40:30;;;;;;;1.73;1.63;;;;;;;21.88;32.86;101705.63;5054890;28;20033;-77
2021/06/01 09:42:55;;;;;;;2.70;2.17;;;;;;;21.51;33.78;101702.00;5053269;28;20772;-79
2021/06/01 09:45:25;;;;;;;2.70;2.25;;;;;;;21.27;33.66;101704.88;5025821;28;20017;-77
2021/06/01 09:48:04;;;;;;;1.90;1.80;;;;;;;21.45;33.94;101706.66;5063375;28;20025;-78
2021/06/01 09:53:01;;;;;;;1.92;1.83;;;;;;;21.11;33.30;101705.53;5038314;28;20091;-77
2021/06/01 09:55:43;;;;;;;4.95;2.08;;;;;;;21.04;32.89;101701.44;5036071;28;20033;-79
2021/06/01 09:58:16;;;;;;;1.80;1.70;;;;;;;21.62;33.46;101705.06;5043911;28;20021;-78
2021/06/01 10:00:43;;;;;;;1.88;1.75;;;;;;;21.99;32.69;101697.13;5065942;28;20031;-78
2021/06/01 10:03:24;;;;;;;2.78;2.08;;;;;;;22.18;32.12;101686.44;5061333;28;20031;-78
2021/06/01 10:05:53;;;;;;;3.95;2.20;;;;;;;21.78;32.44;101694.56;5038284;28;20025;-78
2021/06/01 10:08:25;;;;;;;2.25;2.00;;;;;;;21.13;33.51;101686.03;5056391;28;20017;-76
2021/06/01 10:11:04;;;;;;;1.95;1.73;;;;;;;21.32;34.95;101688.69;5047281;28;20027;-77
2021/06/01 10:13:31;;;;;;;3.08;2.13;;;;;;;21.37;32.73;101692.03;5042171;28;20117;-79
2021/06/01 10:16:00;;;;;;;2.70;2.10;;;;;;;20.83;35.44;101683.78;5016455;28;20365;-78
2021/06/01 10:18:30;;;;;;;2.75;1.85;;;;;;;21.48;35.02;101683.56;5051331;28;20047;-79
2021/06/01 10:20:57;;;;;;;4.15;2.60;;;;;;;21.82;33.17;101677.53;5028140;28;20075;-78
2021/06/01 10:23:28;;;;;;;2.90;1.75;;;;;;;21.34;34.15;101674.41;5063368;28;20027;-78
2021/06/01 10:25:54;;;;;;;2.05;1.88;;;;;;;21.07;35.59;101677.38;5058805;28;20046;-79
2021/06/01 10:31:13;;;;;;;2.85;1.90;;;;;;;21.69;34.02;101674.59;5030066;28;20171;-78
2021/06/01 10:33:43;;;;;;;3.25;2.40;;;;;;;22.06;33.86;101675.47;5035408;28;20061;-78
2021/06/01 10:44:43;;;;;;;2.33;2.10;;;;;;;22.90;33.65;101657.97;4961680;28;20123;-77
2021/06/01 10:53:19;;;;;;;2.58;2.20;;;;;;;23.49;32.59;101654.81;5037531;28;20329;-78
2021/06/01 10:55:57;;;;;;;2.70;2.03;;;;;;;23.98;30.54;101654.72;5054479;28;20025;-79
2021/06/01 10:58:33;;;;;;;2.22;2.00;;;;;;;23.29;32.45;101651.47;5054697;28;20332;-78
2021/06/01 11:04:23;;;;;;;3.63;2.00;;;;;;;24.30;29.41;101649.34;5053250;28;20044;-77
2021/06/01 11:09:45;;;;;;;8.25;2.28;;;;;;;23.89;33.93;101652.63;5040623;28;20052;-76
2021/06/01 11:12:18;;;;;;;3.40;2.33;;;;;;;23.55;32.35;101643.84;5040836;28;20366;-77
2021/06/01 11:14:45;;;;;;;2.67;2.25;;;;;;;23.40;31.19;101642.88;5041704;28;20029;-77
2021/06/01 11:17:10;;;;;;;2.45;2.22;;;;;;;25.03;30.04;101631.59;5023913;28;20043;-79
2021/06/01 11:19:46;;;;;;;2.22;2.13;;;;;;;25.76;28.50;101628.72;5056713;28;20373;-77
2021/06/01 11:22:25;;;;;;;3.80;2.22;;;;;;;25.87;27.26;101621.81;5038498;28;20033;-78
2021/06/01 11:29:01;;;;;;;2.58;2.38;;;;;;;26.87;27.22;101620.38;5052205;28;20115;-77
2021/06/01 11:33:48;;;;;;;3.33;1.98;;;;;;;29.03;23.90;101603.34;5090661;28;20039;-79
2021/06/01 11:36:16;;;;;;;2.22;2.13;;;;;;;29.45;23.60;101608.94;5083173;28;20340;-78
2021/06/01 11:38:57;;;;;;;3.30;2.35;;;;;;;27.61;27.95;101609.72;5079690;28;20378;-77
2021/06/01 11:44:58;;;;;;;2.47;2.28;;;;;;;29.57;24.26;101595.44;5067606;28;20031;-78
2021/06/01 11:47:41;;;;;;;2.88;2.40;;;;;;;31.21;20.99;101597.59;4976157;28;20051;-78
2021/06/01 11:53:00;;;;;;;2.20;2.10;;;;;;;30.11;21.56;101591.78;5073440;28;20027;-78
2021/06/01 11:55:25;;;;;;;2.72;2.28;;;;;;;30.01;23.94;101594.44;5071763;28;20024;-79
2021/06/01 12:04:11;;;;;;;2.10;2.00;;;;;;;30.97;23.33;101586.16;5071209;28;20319;-79
2021/06/01 12:12:43;;;;;;;2.50;2.30;;;;;;;31.01;20.60;101584.88;5073848;28;20031;-79
2021/06/01 12:18:37;;;;;;;2.60;2.50;;;;;;;25.44;29.00;101583.56;5089012;28;20051;-79
2021/06/01 12:20:57;;;;;;;2.83;2.50;;;;;;;24.48;31.26;101570.78;5067500;28;20062;-79
2021/06/01 12:23:32;;;;;;;4.43;2.80;;;;;;;24.56;32.44;101569.47;5060550;28;20067;-78
2021/06/01 12:26:13;;;;;;;3.78;2.65;;;;;;;24.89;31.34;101571.03;5079089;28;20020;-80
2021/06/01 12:32:29;;;;;;;2.38;2.17;;;;;;;24.30;30.85;101555.91;5085191;28;20533;-80
2021/06/01 12:35:36;;;;;;;3.80;2.83;;;;;;;24.50;30.12;101564.50;5060236;28;20123;-77
2021/06/01 12:43:39;;;;;;;2.70;2.47;;;;;;;24.46;31.08;101561.19;5067649;28;20423;-79
2021/06/01 12:46:27;;;;;;;3.60;2.70;;;;;;;23.49;32.86;101565.03;5061401;28;20381;-79
2021/06/01 13:19:53;;;;;;;3.05;2.85;;;;;;;23.75;35.03;101523.53;5061441;28;20047;-75
2021/06/01 13:56:37;;;;;;;2.38;2.17;;;;;;;22.84;31.73;101498.47;5048984;28;20096;-79
2021/06/01 14:10:16;;;;;;;2.45;2.22;;;;;;;23.41;33.30;101488.19;5057578;28;20075;-78
2021/06/01 15:10:51;;;;;;;2.97;2.78;;;;;;;22.46;37.18;101446.41;5022872;28;20044;-77
2021/06/01 15:22:47;;;;;;;2.60;2.40;;;;;;;22.59;37.85;101443.91;5054272;28;20047;-77